PWSweather.com
Personal Weather Stations
Station Observations
MAKAWAOWX1
Up Country Maui, Makawao, HI 96768

Up Country MauiMakawao, HI 96768

Lat: 20.856944, Lon: -156.3149667

Elevation: 1500

Station Type: Davis Vantage Pro

Latest ConditionsUpdated 9:00:03 PM HST Tuesday, Jun 28, 2016
Currently Today's Max Today's Min Today's Average
Temperature 72.4°F22.4°C 80.1°F26.7°C 67.4°F19.7°C 73.7°F23.2°C
Dew Point 68.4°F20.2°C 69.2°F20.7°C 59.4°F15.2°C 65.4°F18.6°C
Winds Calm Calm 12.7 mph ENE20.4 kmh ENE - 3.5 mph 5.6 kmh
Wind Gusts -- 18.4 mph29.6 kmh - -
Humidity 87% 87% 69% 75%
Pressure 29.97 in1014.9 mb 29.98 in1015.2 mb 29.88 in1011.9 mb -
Hour Temp Dew Point Humidity Winds Wind Gusts Pressure Precip Precip Rate Daily Precip Total
09:00 PM 72.4°F22.4°C 68.4°F20.2°C 87% Calm Calm -- 29.97 in1014.9 mb - 0.00 in0.0 mm 0.00 in0.0 mm
08:00 PM 74.0°F23.3°C 69.2°F20.7°C 85% Calm Calm -- 29.95 in1014.2 mb - 0.00 in0.0 mm 0.00 in0.0 mm
07:00 PM 75.2°F24.0°C 67.5°F19.7°C 77% Calm Calm -- 29.92 in1013.2 mb - 0.00 in0.0 mm 0.00 in0.0 mm
06:00 PM 75.9°F24.4°C 67.8°F19.9°C 76% 5.8 mph E9.3 kmh E 10.4 mph16.7 kmh 29.89 in1012.2 mb - 0.00 in0.0 mm 0.00 in0.0 mm
05:00 PM 77.1°F25.1°C 67.4°F19.7°C 72% 6.9 mph E11.1 kmh E 10.4 mph16.7 kmh 29.89 in1012.2 mb - 0.00 in0.0 mm 0.00 in0.0 mm
04:00 PM 78.4°F25.8°C 68.6°F20.3°C 72% 5.8 mph E9.3 kmh E 10.4 mph16.7 kmh 29.88 in1011.9 mb - 0.00 in0.0 mm 0.00 in0.0 mm
03:00 PM 77.9°F25.5°C 68.1°F20.1°C 72% 4.6 mph E7.4 kmh E 11.5 mph18.5 kmh 29.89 in1012.2 mb - 0.00 in0.0 mm 0.00 in0.0 mm
02:00 PM 76.4°F24.7°C 66.3°F19.1°C 71% 6.9 mph E11.1 kmh E 11.5 mph18.5 kmh 29.91 in1012.9 mb - 0.00 in0.0 mm 0.00 in0.0 mm
01:00 PM 79.0°F26.1°C 67.9°F19.9°C 69% 3.5 mph E5.6 kmh E 6.9 mph11.1 kmh 29.92 in1013.2 mb - 0.00 in0.0 mm 0.00 in0.0 mm
12:00 PM 79.9°F26.6°C 69.2°F20.7°C 70% 6.9 mph E11.1 kmh E 9.2 mph14.8 kmh 29.93 in1013.5 mb - 0.00 in0.0 mm 0.00 in0.0 mm
11:00 AM 80.1°F26.7°C 69.0°F20.6°C 69% 6.9 mph E11.1 kmh E 18.4 mph29.6 kmh 29.95 in1014.2 mb - 0.00 in0.0 mm 0.00 in0.0 mm
10:00 AM 76.2°F24.6°C 66.9°F19.4°C 73% 12.7 mph ENE20.4 kmh ENE 17.3 mph27.8 kmh 29.95 in1014.2 mb - 0.00 in0.0 mm 0.00 in0.0 mm
09:00 AM 76.6°F24.8°C 66.5°F19.2°C 71% Calm Calm -- 29.96 in1014.6 mb - 0.00 in0.0 mm 0.00 in0.0 mm
08:00 AM 72.1°F22.3°C 65.6°F18.7°C 80% Calm Calm -- 29.95 in1014.2 mb - 0.00 in0.0 mm 0.00 in0.0 mm
07:00 AM 69.7°F20.9°C 62.2°F16.8°C 77% 1.2 mph E1.9 kmh E -- 29.94 in1013.9 mb - 0.00 in0.0 mm 0.00 in0.0 mm
06:00 AM 68.8°F20.4°C 62.0°F16.7°C 79% 4.6 mph E7.4 kmh E 13.8 mph22.2 kmh 29.93 in1013.5 mb - 0.00 in0.0 mm 0.00 in0.0 mm
05:00 AM 69.1°F20.6°C 62.7°F17.1°C 80% Calm Calm -- 29.93 in1013.5 mb - 0.00 in0.0 mm 0.00 in0.0 mm
04:00 AM 68.4°F20.2°C 61.6°F16.4°C 79% 4.6 mph E7.4 kmh E 10.4 mph16.7 kmh 29.91 in1012.9 mb - 0.00 in0.0 mm 0.00 in0.0 mm
03:00 AM 67.4°F19.7°C 59.6°F15.3°C 76% Calm Calm -- 29.92 in1013.2 mb - 0.00 in0.0 mm 0.00 in0.0 mm
02:00 AM 68.8°F20.4°C 59.4°F15.2°C 72% 1.2 mph E1.9 kmh E 9.2 mph14.8 kmh 29.93 in1013.5 mb - 0.00 in0.0 mm 0.00 in0.0 mm
01:00 AM 69.0°F20.6°C 60.7°F15.9°C 75% 1.2 mph ESE1.9 kmh ESE 4.6 mph7.4 kmh 29.95 in1014.2 mb - 0.00 in0.0 mm 0.00 in0.0 mm
12:00 AM 69.4°F20.8°C 61.5°F16.4°C 76% 4.6 mph E7.4 kmh E 9.2 mph14.8 kmh 29.98 in1015.2 mb - 0.00 in0.0 mm 0.00 in0.0 mm